sensor_id;sensor_type;location;lat;lon;timestamp;pressure;altitude;pressure_sealevel;temperature;humidity
6134;BME280;3098;42.678;23.364;2023-02-19T00:01:08;94988.31;;;4.84;79.16
6134;BME280;3098;42.678;23.364;2023-02-19T00:03:35;95116.28;;;5.63;80.20
6134;BME280;3098;42.678;23.364;2023-02-19T00:06:04;95158.56;;;5.76;80.18
6134;BME280;3098;42.678;23.364;2023-02-19T00:08:32;95114.78;;;5.47;80.64
6134;BME280;3098;42.678;23.364;2023-02-19T00:11:00;95190.06;;;6.07;81.30
6134;BME280;3098;42.678;23.364;2023-02-19T00:13:29;95181.69;;;5.95;81.40
6134;BME280;3098;42.678;23.364;2023-02-19T00:15:57;95126.22;;;5.71;81.22
6134;BME280;3098;42.678;23.364;2023-02-19T00:18:25;95176.09;;;6.06;81.38
6134;BME280;3098;42.678;23.364;2023-02-19T00:20:54;95110.75;;;5.59;81.83
6134;BME280;3098;42.678;23.364;2023-02-19T00:23:21;95164.63;;;5.87;81.71
6134;BME280;3098;42.678;23.364;2023-02-19T00:25:48;95178.78;;;5.91;82.11
6134;BME280;3098;42.678;23.364;2023-02-19T00:28:15;95149.16;;;5.65;82.81
6134;BME280;3098;42.678;23.364;2023-02-19T00:30:43;95165.66;;;5.86;83.27
6134;BME280;3098;42.678;23.364;2023-02-19T00:33:11;95158.91;;;5.60;83.38
6134;BME280;3098;42.678;23.364;2023-02-19T00:35:38;95161.03;;;5.58;84.19
6134;BME280;3098;42.678;23.364;2023-02-19T00:38:05;95105.38;;;5.36;84.48
6134;BME280;3098;42.678;23.364;2023-02-19T00:40:33;95097.56;;;5.10;85.08
6134;BME280;3098;42.678;23.364;2023-02-19T00:43:00;95162.81;;;5.72;85.15
6134;BME280;3098;42.678;23.364;2023-02-19T00:45:27;95169.41;;;5.65;85.55
6134;BME280;3098;42.678;23.364;2023-02-19T00:47:54;95158.09;;;5.69;85.67
6134;BME280;3098;42.678;23.364;2023-02-19T00:50:23;95150.69;;;5.71;85.96
6134;BME280;3098;42.678;23.364;2023-02-19T00:52:50;95146.78;;;5.64;86.16
6134;BME280;3098;42.678;23.364;2023-02-19T00:55:17;95090.69;;;5.19;86.54
6134;BME280;3098;42.678;23.364;2023-02-19T00:57:44;95151.59;;;5.47;86.96
6134;BME280;3098;42.678;23.364;2023-02-19T01:00:12;95095.09;;;5.34;86.68
6134;BME280;3098;42.678;23.364;2023-02-19T01:02:39;95152.84;;;5.59;86.35
6134;BME280;3098;42.678;23.364;2023-02-19T01:05:06;95102.00;;;5.20;86.71
6134;BME280;3098;42.678;23.364;2023-02-19T01:07:36;95156.84;;;5.52;86.63
6134;BME280;3098;42.678;23.364;2023-02-19T01:10:05;95152.63;;;5.51;86.94
6134;BME280;3098;42.678;23.364;2023-02-19T01:12:32;95153.16;;;5.53;86.50
6134;BME280;3098;42.678;23.364;2023-02-19T01:14:59;95153.66;;;5.55;86.17
6134;BME280;3098;42.678;23.364;2023-02-19T01:17:26;95156.31;;;5.55;86.12
6134;BME280;3098;42.678;23.364;2023-02-19T01:19:53;95109.53;;;5.42;86.18
6134;BME280;3098;42.678;23.364;2023-02-19T01:22:20;95136.06;;;5.55;85.53
6134;BME280;3098;42.678;23.364;2023-02-19T01:24:49;95139.94;;;5.63;85.75
6134;BME280;3098;42.678;23.364;2023-02-19T01:27:15;95122.47;;;5.28;85.31
6134;BME280;3098;42.678;23.364;2023-02-19T01:29:43;95108.09;;;5.10;85.76
6134;BME280;3098;42.678;23.364;2023-02-19T01:32:10;95160.06;;;5.34;85.79
6134;BME280;3098;42.678;23.364;2023-02-19T01:34:37;95118.63;;;5.00;86.27
6134;BME280;3098;42.678;23.364;2023-02-19T01:37:04;95060.63;;;4.67;86.25
6134;BME280;3098;42.678;23.364;2023-02-19T01:39:35;95111.00;;;4.94;87.07
6134;BME280;3098;42.678;23.364;2023-02-19T01:42:05;95166.94;;;5.25;86.87
6134;BME280;3098;42.678;23.364;2023-02-19T01:45:13;95179.56;;;5.17;86.72
6134;BME280;3098;42.678;23.364;2023-02-19T01:47:43;95173.00;;;5.15;86.53
6134;BME280;3098;42.678;23.364;2023-02-19T01:50:10;95190.88;;;5.18;86.74
6134;BME280;3098;42.678;23.364;2023-02-19T01:52:37;95153.06;;;4.99;87.25
6134;BME280;3098;42.678;23.364;2023-02-19T01:55:06;95198.72;;;5.28;87.68
6134;BME280;3098;42.678;23.364;2023-02-19T01:57:42;95173.78;;;5.20;87.77
6134;BME280;3098;42.678;23.364;2023-02-19T02:00:13;95186.38;;;5.29;88.41
6134;BME280;3098;42.678;23.364;2023-02-19T02:02:42;95122.31;;;4.94;88.27
6134;BME280;3098;42.678;23.364;2023-02-19T02:05:17;95128.88;;;4.92;88.43
6134;BME280;3098;42.678;23.364;2023-02-19T02:07:47;95168.03;;;5.13;88.73
6134;BME280;3098;42.678;23.364;2023-02-19T02:10:31;95193.75;;;5.27;89.42
6134;BME280;3098;42.678;23.364;2023-02-19T02:12:59;95190.59;;;5.25;89.15
6134;BME280;3098;42.678;23.364;2023-02-19T02:15:32;95124.44;;;4.87;89.21
6134;BME280;3098;42.678;23.364;2023-02-19T02:18:07;95082.72;;;4.55;89.17
6134;BME280;3098;42.678;23.364;2023-02-19T02:20:55;95186.91;;;5.31;89.05
6134;BME280;3098;42.678;23.364;2023-02-19T02:23:38;95150.19;;;4.90;88.59
6134;BME280;3098;42.678;23.364;2023-02-19T02:26:21;95172.19;;;5.19;87.92
6134;BME280;3098;42.678;23.364;2023-02-19T02:29:24;95117.34;;;4.88;88.44
6134;BME280;3098;42.678;23.364;2023-02-19T02:31:57;95121.53;;;4.99;87.54
6134;BME280;3098;42.678;23.364;2023-02-19T02:34:29;95184.25;;;5.41;87.86
6134;BME280;3098;42.678;23.364;2023-02-19T02:36:58;95193.19;;;5.35;88.04
6134;BME280;3098;42.678;23.364;2023-02-19T02:39:27;95192.69;;;5.33;88.61
6134;BME280;3098;42.678;23.364;2023-02-19T02:41:58;95162.47;;;5.15;88.82
6134;BME280;3098;42.678;23.364;2023-02-19T02:44:44;95116.03;;;4.85;89.03
6134;BME280;3098;42.678;23.364;2023-02-19T02:47:38;95144.94;;;4.90;89.16
6134;BME280;3098;42.678;23.364;2023-02-19T02:50:11;95118.41;;;4.67;89.36
6134;BME280;3098;42.678;23.364;2023-02-19T02:52:42;95138.06;;;4.94;89.25
6134;BME280;3098;42.678;23.364;2023-02-19T02:55:30;95025.00;;;4.15;89.42
6134;BME280;3098;42.678;23.364;2023-02-19T02:58:00;95168.28;;;5.07;89.36
6134;BME280;3098;42.678;23.364;2023-02-19T03:00:28;95175.66;;;5.00;89.46
6134;BME280;3098;42.678;23.364;2023-02-19T03:03:25;95185.63;;;5.03;90.16
6134;BME280;3098;42.678;23.364;2023-02-19T03:06:00;95175.41;;;4.96;89.55
6134;BME280;3098;42.678;23.364;2023-02-19T03:08:35;95169.63;;;4.84;89.70
6134;BME280;3098;42.678;23.364;2023-02-19T03:11:05;95202.19;;;5.03;89.64
6134;BME280;3098;42.678;23.364;2023-02-19T03:13:49;95201.88;;;5.35;88.50
6134;BME280;3098;42.678;23.364;2023-02-19T03:16:37;95200.22;;;5.59;86.46
6134;BME280;3098;42.678;23.364;2023-02-19T03:19:26;95184.53;;;5.39;86.10
6134;BME280;3098;42.678;23.364;2023-02-19T03:21:59;95204.53;;;5.30;87.20
6134;BME280;3098;42.678;23.364;2023-02-19T03:24:29;95174.88;;;5.04;87.62
6134;BME280;3098;42.678;23.364;2023-02-19T03:27:17;95189.59;;;5.00;87.62
6134;BME280;3098;42.678;23.364;2023-02-19T03:29:48;95215.06;;;5.15;88.28
6134;BME280;3098;42.678;23.364;2023-02-19T03:32:19;95160.47;;;4.56;89.33
6134;BME280;3098;42.678;23.364;2023-02-19T03:34:53;95154.94;;;4.38;90.07
6134;BME280;3098;42.678;23.364;2023-02-19T03:37:25;95209.06;;;4.59;90.35
6134;BME280;3098;42.678;23.364;2023-02-19T03:39:55;95223.50;;;4.67;91.19
6134;BME280;3098;42.678;23.364;2023-02-19T03:42:32;95232.69;;;4.69;91.25
6134;BME280;3098;42.678;23.364;2023-02-19T03:45:10;95232.19;;;4.62;91.47
6134;BME280;3098;42.678;23.364;2023-02-19T03:47:46;95221.13;;;4.50;91.71
6134;BME280;3098;42.678;23.364;2023-02-19T03:50:20;95237.69;;;4.65;91.41
6134;BME280;3098;42.678;23.364;2023-02-19T03:52:54;95242.94;;;4.65;91.55
6134;BME280;3098;42.678;23.364;2023-02-19T03:55:25;95250.06;;;4.65;91.21
6134;BME280;3098;42.678;23.364;2023-02-19T03:57:57;95241.09;;;4.51;92.03
6134;BME280;3098;42.678;23.364;2023-02-19T04:00:31;95210.34;;;4.31;92.28
6134;BME280;3098;42.678;23.364;2023-02-19T04:03:07;95253.22;;;4.62;92.45
6134;BME280;3098;42.678;23.364;2023-02-19T04:05:43;95244.78;;;4.55;92.14
6134;BME280;3098;42.678;23.364;2023-02-19T04:08:14;95250.31;;;4.63;92.49
6134;BME280;3098;42.678;23.364;2023-02-19T04:10:44;95191.44;;;4.19;92.41
6134;BME280;3098;42.678;23.364;2023-02-19T04:13:16;95174.09;;;4.18;92.95
6134;BME280;3098;42.678;23.364;2023-02-19T04:15:46;95221.38;;;4.43;92.28
6134;BME280;3098;42.678;23.364;2023-02-19T04:18:17;95241.91;;;4.61;92.77
6134;BME280;3098;42.678;23.364;2023-02-19T04:20:47;95263.44;;;4.69;92.72
6134;BME280;3098;42.678;23.364;2023-02-19T04:23:19;95224.03;;;4.58;92.20
6134;BME280;3098;42.678;23.364;2023-02-19T04:25:51;95252.69;;;4.85;92.00
6134;BME280;3098;42.678;23.364;2023-02-19T04:28:20;95253.47;;;4.96;91.42
6134;BME280;3098;42.678;23.364;2023-02-19T04:30:48;95224.56;;;4.71;91.16
6134;BME280;3098;42.678;23.364;2023-02-19T04:33:15;95259.00;;;4.84;91.72
6134;BME280;3098;42.678;23.364;2023-02-19T04:35:42;95212.72;;;4.43;92.42
6134;BME280;3098;42.678;23.364;2023-02-19T04:38:10;95260.56;;;4.75;92.33
6134;BME280;3098;42.678;23.364;2023-02-19T04:40:38;95261.88;;;4.68;92.72
6134;BME280;3098;42.678;23.364;2023-02-19T04:43:05;95221.66;;;4.37;92.63
6134;BME280;3098;42.678;23.364;2023-02-19T04:45:36;95273.19;;;4.73;92.33
6134;BME280;3098;42.678;23.364;2023-02-19T04:48:03;95261.59;;;4.74;92.51
6134;BME280;3098;42.678;23.364;2023-02-19T04:50:30;95255.56;;;4.69;92.83
6134;BME280;3098;42.678;23.364;2023-02-19T04:52:58;95261.34;;;4.71;92.45
6134;BME280;3098;42.678;23.364;2023-02-19T04:55:26;95190.63;;;4.24;92.79
6134;BME280;3098;42.678;23.364;2023-02-19T04:57:53;95228.22;;;4.39;92.88
6134;BME280;3098;42.678;23.364;2023-02-19T05:00:20;95271.88;;;4.71;92.93
6134;BME280;3098;42.678;23.364;2023-02-19T05:02:48;95251.09;;;4.59;92.27
6134;BME280;3098;42.678;23.364;2023-02-19T05:05:15;95271.59;;;4.77;92.20
6134;BME280;3098;42.678;23.364;2023-02-19T05:07:42;95209.03;;;4.44;91.75
6134;BME280;3098;42.678;23.364;2023-02-19T05:10:09;95265.28;;;4.88;91.73
6134;BME280;3098;42.678;23.364;2023-02-19T05:12:38;95268.69;;;4.94;91.06
6134;BME280;3098;42.678;23.364;2023-02-19T05:15:06;95210.09;;;4.58;91.49
6134;BME280;3098;42.678;23.364;2023-02-19T05:17:33;95271.06;;;5.00;90.98
6134;BME280;3098;42.678;23.364;2023-02-19T05:20:00;95209.84;;;4.54;90.81
6134;BME280;3098;42.678;23.364;2023-02-19T05:22:28;95242.44;;;4.74;91.24
6134;BME280;3098;42.678;23.364;2023-02-19T05:24:55;95244.28;;;4.78;91.34
6134;BME280;3098;42.678;23.364;2023-02-19T05:27:22;95292.63;;;5.12;90.83
6134;BME280;3098;42.678;23.364;2023-02-19T05:29:51;95123.41;;;4.13;90.16
6134;BME280;3098;42.678;23.364;2023-02-19T05:32:17;95214.06;;;4.91;89.79
6134;BME280;3098;42.678;23.364;2023-02-19T05:34:45;95274.19;;;5.43;89.02
6134;BME280;3098;42.678;23.364;2023-02-19T05:37:12;95273.63;;;5.51;87.69
6134;BME280;3098;42.678;23.364;2023-02-19T05:39:39;95312.81;;;5.72;87.55
6134;BME280;3098;42.678;23.364;2023-02-19T05:42:06;95283.84;;;5.93;87.24
6134;BME280;3098;42.678;23.364;2023-02-19T05:44:34;95301.53;;;6.41;85.77
6134;BME280;3098;42.678;23.364;2023-02-19T05:47:03;95262.81;;;6.36;83.33
6134;BME280;3098;42.678;23.364;2023-02-19T05:49:30;95302.22;;;7.01;82.10
6134;BME280;3098;42.678;23.364;2023-02-19T05:51:57;95294.56;;;7.33;79.93
6134;BME280;3098;42.678;23.364;2023-02-19T05:54:27;95311.56;;;7.22;79.02
6134;BME280;3098;42.678;23.364;2023-02-19T05:56:54;95279.63;;;7.23;78.33
6134;BME280;3098;42.678;23.364;2023-02-19T05:59:23;95283.56;;;7.55;76.59
6134;BME280;3098;42.678;23.364;2023-02-19T06:01:53;95315.47;;;8.34;73.74
6134;BME280;3098;42.678;23.364;2023-02-19T06:04:22;95318.66;;;9.11;70.30
6134;BME280;3098;42.678;23.364;2023-02-19T06:06:49;95321.91;;;10.00;66.97
6134;BME280;3098;42.678;23.364;2023-02-19T06:09:17;95324.16;;;11.24;61.42
6134;BME280;3098;42.678;23.364;2023-02-19T06:11:45;95332.31;;;12.42;58.12
6134;BME280;3098;42.678;23.364;2023-02-19T06:14:13;95330.84;;;12.84;53.29
6134;BME280;3098;42.678;23.364;2023-02-19T06:16:40;95317.44;;;13.49;49.19
6134;BME280;3098;42.678;23.364;2023-02-19T06:19:08;95325.25;;;13.62;50.85
6134;BME280;3098;42.678;23.364;2023-02-19T06:21:36;95328.44;;;14.02;48.71
6134;BME280;3098;42.678;23.364;2023-02-19T06:24:05;95304.63;;;13.16;47.37
6134;BME280;3098;42.678;23.364;2023-02-19T06:26:32;95339.06;;;13.13;48.28
6134;BME280;3098;42.678;23.364;2023-02-19T06:29:00;95325.94;;;12.51;49.24
6134;BME280;3098;42.678;23.364;2023-02-19T06:31:28;95315.47;;;12.72;48.79
6134;BME280;3098;42.678;23.364;2023-02-19T06:33:56;95333.53;;;13.01;47.75
6134;BME280;3098;42.678;23.364;2023-02-19T06:36:23;95299.06;;;12.79;49.11
6134;BME280;3098;42.678;23.364;2023-02-19T06:38:52;95322.53;;;11.89;49.92
6134;BME280;3098;42.678;23.364;2023-02-19T06:41:19;95329.25;;;12.18;50.38
6134;BME280;3098;42.678;23.364;2023-02-19T06:43:46;95335.91;;;12.37;49.49
6134;BME280;3098;42.678;23.364;2023-02-19T06:46:13;95328.66;;;12.86;49.38
6134;BME280;3098;42.678;23.364;2023-02-19T06:48:41;95348.94;;;13.72;46.22
6134;BME280;3098;42.678;23.364;2023-02-19T06:51:11;95323.91;;;14.03;45.03
6134;BME280;3098;42.678;23.364;2023-02-19T06:53:39;95347.97;;;14.99;43.05
6134;BME280;3098;42.678;23.364;2023-02-19T06:56:21;95326.59;;;14.78;42.25
6134;BME280;3098;42.678;23.364;2023-02-19T06:58:49;95297.63;;;14.60;42.11
6134;BME280;3098;42.678;23.364;2023-02-19T07:01:18;95336.38;;;13.81;43.79
6134;BME280;3098;42.678;23.364;2023-02-19T07:03:46;95302.41;;;13.44;44.84
6134;BME280;3098;42.678;23.364;2023-02-19T07:06:14;95330.41;;;14.31;43.42
6134;BME280;3098;42.678;23.364;2023-02-19T07:08:41;95356.13;;;14.44;42.61
6134;BME280;3098;42.678;23.364;2023-02-19T07:11:10;95351.13;;;15.01;41.73
6134;BME280;3098;42.678;23.364;2023-02-19T07:13:37;95315.22;;;15.52;40.54
6134;BME280;3098;42.678;23.364;2023-02-19T07:16:06;95352.44;;;15.36;40.32
6134;BME280;3098;42.678;23.364;2023-02-19T07:18:34;95336.84;;;14.68;41.09
6134;BME280;3098;42.678;23.364;2023-02-19T07:21:04;95251.75;;;15.61;39.17
6134;BME280;3098;42.678;23.364;2023-02-19T07:23:32;95317.09;;;16.41;38.27
6134;BME280;3098;42.678;23.364;2023-02-19T07:26:00;95305.38;;;16.22;38.58
6134;BME280;3098;42.678;23.364;2023-02-19T07:28:31;95277.53;;;16.71;37.33
6134;BME280;3098;42.678;23.364;2023-02-19T07:31:00;95310.31;;;17.32;36.60
6134;BME280;3098;42.678;23.364;2023-02-19T07:33:27;95310.47;;;18.07;35.87
6134;BME280;3098;42.678;23.364;2023-02-19T07:35:55;95233.19;;;18.47;34.04
6134;BME280;3098;42.678;23.364;2023-02-19T07:38:24;95323.13;;;19.54;33.42
6134;BME280;3098;42.678;23.364;2023-02-19T07:40:53;95287.84;;;19.59;32.43
6134;BME280;3098;42.678;23.364;2023-02-19T07:43:22;95293.28;;;19.82;32.37
6134;BME280;3098;42.678;23.364;2023-02-19T07:45:55;95292.09;;;19.79;32.28
6134;BME280;3098;42.678;23.364;2023-02-19T07:48:23;95320.09;;;19.75;32.54
6134;BME280;3098;42.678;23.364;2023-02-19T07:50:50;95272.28;;;19.68;32.29
6134;BME280;3098;42.678;23.364;2023-02-19T07:53:17;95315.03;;;20.15;31.43
6134;BME280;3098;42.678;23.364;2023-02-19T07:55:46;95317.97;;;19.45;32.51
6134;BME280;3098;42.678;23.364;2023-02-19T07:58:14;95318.47;;;20.12;31.58
6134;BME280;3098;42.678;23.364;2023-02-19T08:00:43;95321.19;;;19.35;32.59
6134;BME280;3098;42.678;23.364;2023-02-19T08:03:15;95317.97;;;19.45;32.46
6134;BME280;3098;42.678;23.364;2023-02-19T08:05:41;95324.97;;;19.50;32.25
6134;BME280;3098;42.678;23.364;2023-02-19T08:08:11;95324.47;;;19.44;32.13
6134;BME280;3098;42.678;23.364;2023-02-19T08:10:39;95305.13;;;19.77;32.52
6134;BME280;3098;42.678;23.364;2023-02-19T08:13:25;95300.06;;;20.59;30.83
6134;BME280;3098;42.678;23.364;2023-02-19T08:15:54;95315.13;;;20.19;30.93
6134;BME280;3098;42.678;23.364;2023-02-19T08:18:24;95265.88;;;19.19;31.76
6134;BME280;3098;42.678;23.364;2023-02-19T08:20:53;95269.41;;;19.04;32.17
6134;BME280;3098;42.678;23.364;2023-02-19T08:23:22;95296.63;;;19.02;32.13
6134;BME280;3098;42.678;23.364;2023-02-19T08:25:50;95317.91;;;18.91;32.67
6134;BME280;3098;42.678;23.364;2023-02-19T08:28:18;95307.19;;;18.29;33.79
6134;BME280;3098;42.678;23.364;2023-02-19T08:30:47;95306.47;;;18.79;33.22
6134;BME280;3098;42.678;23.364;2023-02-19T08:33:16;95305.09;;;18.85;32.98
6134;BME280;3098;42.678;23.364;2023-02-19T08:35:45;95247.75;;;18.62;32.88
6134;BME280;3098;42.678;23.364;2023-02-19T08:38:14;95309.72;;;19.38;31.96
6134;BME280;3098;42.678;23.364;2023-02-19T08:40:42;95290.94;;;19.23;32.45
6134;BME280;3098;42.678;23.364;2023-02-19T08:43:12;95286.97;;;18.82;32.87
6134;BME280;3098;42.678;23.364;2023-02-19T08:45:43;95246.72;;;18.66;32.54
6134;BME280;3098;42.678;23.364;2023-02-19T08:48:12;95297.06;;;18.69;33.40
6134;BME280;3098;42.678;23.364;2023-02-19T08:50:40;95294.50;;;19.27;32.48
6134;BME280;3098;42.678;23.364;2023-02-19T08:53:10;95300.53;;;19.39;32.66
6134;BME280;3098;42.678;23.364;2023-02-19T08:55:37;95249.47;;;19.62;31.97
6134;BME280;3098;42.678;23.364;2023-02-19T08:58:05;95283.50;;;19.93;31.51
6134;BME280;3098;42.678;23.364;2023-02-19T09:00:32;95198.97;;;18.60;32.89
6134;BME280;3098;42.678;23.364;2023-02-19T09:02:59;95269.31;;;19.35;32.77
6134;BME280;3098;42.678;23.364;2023-02-19T09:05:26;95273.13;;;18.99;33.49
6134;BME280;3098;42.678;23.364;2023-02-19T09:07:53;95267.25;;;18.93;33.47
6134;BME280;3098;42.678;23.364;2023-02-19T09:10:23;95245.06;;;19.16;33.25
6134;BME280;3098;42.678;23.364;2023-02-19T09:12:50;95278.56;;;20.18;32.78
6134;BME280;3098;42.678;23.364;2023-02-19T09:15:18;95254.50;;;21.66;30.38
6134;BME280;3098;42.678;23.364;2023-02-19T09:17:50;95235.91;;;21.25;30.89
6134;BME280;3098;42.678;23.364;2023-02-19T09:20:17;95255.97;;;21.01;31.08
6134;BME280;3098;42.678;23.364;2023-02-19T09:22:44;95237.03;;;22.34;29.19
6134;BME280;3098;42.678;23.364;2023-02-19T09:25:12;95251.13;;;21.40;30.28
6134;BME280;3098;42.678;23.364;2023-02-19T09:27:42;95201.97;;;21.94;29.50
6134;BME280;3098;42.678;23.364;2023-02-19T09:30:09;95197.47;;;21.68;29.62
6134;BME280;3098;42.678;23.364;2023-02-19T09:32:38;95249.41;;;22.35;29.25
6134;BME280;3098;42.678;23.364;2023-02-19T09:35:06;95221.13;;;22.22;29.34
6134;BME280;3098;42.678;23.364;2023-02-19T09:37:34;95242.75;;;21.48;30.68
6134;BME280;3098;42.678;23.364;2023-02-19T09:40:01;95221.97;;;21.19;30.81
6134;BME280;3098;42.678;23.364;2023-02-19T09:42:30;95101.72;;;19.54;31.86
6134;BME280;3098;42.678;23.364;2023-02-19T09:45:00;95178.06;;;20.14;32.01
6134;BME280;3098;42.678;23.364;2023-02-19T09:47:29;95237.56;;;21.06;31.67
6134;BME280;3098;42.678;23.364;2023-02-19T09:50:00;95223.50;;;21.20;31.11
6134;BME280;3098;42.678;23.364;2023-02-19T09:52:32;95213.22;;;21.99;30.14
6134;BME280;3098;42.678;23.364;2023-02-19T09:55:13;95204.50;;;21.09;30.93
6134;BME280;3098;42.678;23.364;2023-02-19T09:57:42;95202.97;;;21.08;31.18
6134;BME280;3098;42.678;23.364;2023-02-19T10:00:20;95222.56;;;21.39;30.25
6134;BME280;3098;42.678;23.364;2023-02-19T10:02:51;95161.81;;;20.85;30.86
6134;BME280;3098;42.678;23.364;2023-02-19T10:05:20;95116.16;;;20.40;30.95
6134;BME280;3098;42.678;23.364;2023-02-19T10:07:51;95202.47;;;21.33;30.28
6134;BME280;3098;42.678;23.364;2023-02-19T10:10:26;95179.13;;;21.47;30.28
6134;BME280;3098;42.678;23.364;2023-02-19T10:13:00;95186.91;;;20.93;30.52
6134;BME280;3098;42.678;23.364;2023-02-19T10:15:38;95089.84;;;20.30;30.68
6134;BME280;3098;42.678;23.364;2023-02-19T10:18:07;95180.88;;;19.75;31.91
6134;BME280;3098;42.678;23.364;2023-02-19T10:20:35;95169.41;;;19.56;32.47
6134;BME280;3098;42.678;23.364;2023-02-19T10:23:04;95166.69;;;20.01;32.16
6134;BME280;3098;42.678;23.364;2023-02-19T10:25:33;95064.59;;;19.63;31.47
6134;BME280;3098;42.678;23.364;2023-02-19T10:28:01;95154.66;;;20.40;31.74
6134;BME280;3098;42.678;23.364;2023-02-19T10:30:33;95089.75;;;20.52;30.77
6134;BME280;3098;42.678;23.364;2023-02-19T10:33:08;95113.47;;;20.40;30.70
6134;BME280;3098;42.678;23.364;2023-02-19T10:35:37;95117.88;;;19.54;31.40
6134;BME280;3098;42.678;23.364;2023-02-19T10:38:17;95053.06;;;19.39;31.22
6134;BME280;3098;42.678;23.364;2023-02-19T10:40:45;95109.78;;;19.54;31.52
6134;BME280;3098;42.678;23.364;2023-02-19T10:43:21;95133.66;;;20.04;31.43
6134;BME280;3098;42.678;23.364;2023-02-19T10:45:57;95115.16;;;19.76;31.63
6134;BME280;3098;42.678;23.364;2023-02-19T10:48:29;95117.47;;;20.53;30.37
6134;BME280;3098;42.678;23.364;2023-02-19T10:51:01;95021.94;;;19.91;30.41
6134;BME280;3098;42.678;23.364;2023-02-19T10:53:42;95083.16;;;20.20;30.57
6134;BME280;3098;42.678;23.364;2023-02-19T10:56:13;95101.31;;;20.83;30.17
6134;BME280;3098;42.678;23.364;2023-02-19T11:01:12;95020.72;;;19.85;30.28
6134;BME280;3098;42.678;23.364;2023-02-19T11:03:42;95030.66;;;19.81;30.65
6134;BME280;3098;42.678;23.364;2023-02-19T11:06:11;95084.56;;;19.62;31.26
6134;BME280;3098;42.678;23.364;2023-02-19T11:08:53;95073.22;;;19.30;32.00
6134;BME280;3098;42.678;23.364;2023-02-19T11:11:25;95073.16;;;19.45;31.58
6134;BME280;3098;42.678;23.364;2023-02-19T11:13:55;94856.41;;;18.24;31.74
6134;BME280;3098;42.678;23.364;2023-02-19T11:16:23;95068.16;;;19.25;31.90
6134;BME280;3098;42.678;23.364;2023-02-19T11:19:03;95067.00;;;19.45;31.76
6134;BME280;3098;42.678;23.364;2023-02-19T11:21:31;95035.84;;;19.67;31.32
6134;BME280;3098;42.678;23.364;2023-02-19T11:23:59;95044.09;;;20.67;30.31
6134;BME280;3098;42.678;23.364;2023-02-19T11:26:31;95033.19;;;20.89;29.68
6134;BME280;3098;42.678;23.364;2023-02-19T11:29:15;95011.03;;;20.70;29.85
6134;BME280;3098;42.678;23.364;2023-02-19T11:31:44;94996.16;;;20.46;29.98
6134;BME280;3098;42.678;23.364;2023-02-19T11:34:28;95031.84;;;20.73;29.71
6134;BME280;3098;42.678;23.364;2023-02-19T11:37:10;95020.81;;;20.48;29.81
6134;BME280;3098;42.678;23.364;2023-02-19T11:39:39;95015.78;;;20.83;30.02
6134;BME280;3098;42.678;23.364;2023-02-19T11:42:31;95010.38;;;20.80;29.84
6134;BME280;3098;42.678;23.364;2023-02-19T11:45:26;95015.34;;;20.74;29.69
6134;BME280;3098;42.678;23.364;2023-02-19T11:48:16;94972.09;;;20.30;29.75
6134;BME280;3098;42.678;23.364;2023-02-19T11:51:03;94925.84;;;20.25;29.82
6134;BME280;3098;42.678;23.364;2023-02-19T11:53:33;94996.22;;;20.53;29.60
6134;BME280;3098;42.678;23.364;2023-02-19T11:56:15;94989.47;;;20.06;30.37
6134;BME280;3098;42.678;23.364;2023-02-19T11:58:54;94972.94;;;19.78;30.22
6134;BME280;3098;42.678;23.364;2023-02-19T12:01:28;94959.75;;;20.29;30.22
6134;BME280;3098;42.678;23.364;2023-02-19T12:07:22;94961.00;;;20.05;29.69
6134;BME280;3098;42.678;23.364;2023-02-19T12:10:03;94928.03;;;20.45;29.05
6134;BME280;3098;42.678;23.364;2023-02-19T12:12:47;94933.88;;;20.54;28.57
6134;BME280;3098;42.678;23.364;2023-02-19T12:15:34;94886.47;;;20.90;27.77
6134;BME280;3098;42.678;23.364;2023-02-19T12:18:20;94950.69;;;21.76;27.42
6134;BME280;3098;42.678;23.364;2023-02-19T12:20:58;94927.47;;;21.10;27.96
6134;BME280;3098;42.678;23.364;2023-02-19T12:23:43;94940.16;;;20.69;28.03
6134;BME280;3098;42.678;23.364;2023-02-19T12:26:21;94914.94;;;20.14;28.87
6134;BME280;3098;42.678;23.364;2023-02-19T12:35:06;94862.97;;;19.77;28.43
6134;BME280;3098;42.678;23.364;2023-02-19T12:37:45;94905.09;;;19.95;28.77
6134;BME280;3098;42.678;23.364;2023-02-19T12:40:23;94907.81;;;20.69;28.16
6134;BME280;3098;42.678;23.364;2023-02-19T12:43:00;94904.94;;;20.88;28.64
6134;BME280;3098;42.678;23.364;2023-02-19T12:45:35;94898.63;;;21.79;27.99
6134;BME280;3098;42.678;23.364;2023-02-19T12:48:10;94891.25;;;21.72;27.80
6134;BME280;3098;42.678;23.364;2023-02-19T12:50:39;94793.09;;;20.24;28.48
6134;BME280;3098;42.678;23.364;2023-02-19T12:53:11;94883.66;;;21.24;28.26
6134;BME280;3098;42.678;23.364;2023-02-19T12:55:45;94883.00;;;20.49;29.16
6134;BME280;3098;42.678;23.364;2023-02-19T12:58:29;94873.50;;;19.33;30.51
6134;BME280;3098;42.678;23.364;2023-02-19T13:00:58;94871.72;;;19.14;31.10
6134;BME280;3098;42.678;23.364;2023-02-19T13:03:30;94872.88;;;18.90;31.27
6134;BME280;3098;42.678;23.364;2023-02-19T13:06:04;94861.13;;;18.99;31.27
6134;BME280;3098;42.678;23.364;2023-02-19T13:08:36;94855.84;;;19.06;31.39
6134;BME280;3098;42.678;23.364;2023-02-19T13:11:09;94784.47;;;18.56;31.04
6134;BME280;3098;42.678;23.364;2023-02-19T13:13:44;94807.22;;;18.65;31.47
6134;BME280;3098;42.678;23.364;2023-02-19T13:16:14;94413.28;;;16.10;31.01
6134;BME280;3098;42.678;23.364;2023-02-19T13:18:45;94844.41;;;18.86;31.26
6134;BME280;3098;42.678;23.364;2023-02-19T13:21:13;94798.97;;;18.77;31.14
6134;BME280;3098;42.678;23.364;2023-02-19T13:24:04;94840.13;;;19.08;31.27
6134;BME280;3098;42.678;23.364;2023-02-19T13:26:54;94831.06;;;18.93;31.08
6134;BME280;3098;42.678;23.364;2023-02-19T13:29:37;94824.72;;;18.78;31.37
6134;BME280;3098;42.678;23.364;2023-02-19T13:32:24;94790.66;;;18.60;31.16
6134;BME280;3098;42.678;23.364;2023-02-19T13:35:04;94793.19;;;18.49;31.55
6134;BME280;3098;42.678;23.364;2023-02-19T13:37:35;94714.91;;;18.02;31.73
6134;BME280;3098;42.678;23.364;2023-02-19T13:40:05;94815.06;;;18.51;31.77
6134;BME280;3098;42.678;23.364;2023-02-19T13:42:50;94785.97;;;18.34;31.76
6134;BME280;3098;42.678;23.364;2023-02-19T13:45:22;94812.19;;;18.63;31.78
6134;BME280;3098;42.678;23.364;2023-02-19T13:47:59;94752.56;;;18.31;31.56
6134;BME280;3098;42.678;23.364;2023-02-19T13:50:29;94806.78;;;18.86;31.23